Terminal Aerodrome Forecast
Issued by NWS Cleveland, OH

Home | Current Version | Previous Version | Graphics & Text | Print | Product List | Glossary On
Versions: 1 2 3 4 5 6 7 8 9 10 11 12 13 14 15 16 17
000
FTUS41 KCLE 192100 AAA
TAFCAK
TAF AMD
KCAK 192109Z 1921/2018 31007KT P6SM OVC023
      TEMPO 1921/1924 BKN015 OVC023
     FM200000 VRB03KT P6SM OVC025=

USA.gov is the U.S. government's official web portal to all federal, state and local government web resources and services.